createdAt,value
2022-08-21T00:00:44.237Z,101520.31
2022-08-21T00:03:12.372Z,101510.66
2022-08-21T00:05:42.254Z,101511.47
2022-08-21T00:08:10.208Z,101506.94
2022-08-21T00:10:36.814Z,101499.91
2022-08-21T00:13:06.327Z,101498.59
2022-08-21T00:15:35.022Z,101501.09
2022-08-21T00:18:02.145Z,101500.97
2022-08-21T00:20:29.525Z,101491.13
2022-08-21T00:22:56.085Z,101499.78
2022-08-21T00:25:26.155Z,101491.56
2022-08-21T00:27:53.190Z,101500.84
2022-08-21T00:30:23.247Z,101497.66
2022-08-21T00:32:51.346Z,101500.41
2022-08-21T00:35:21.265Z,101494.19
2022-08-21T00:37:47.792Z,101497.53
2022-08-21T00:40:18.315Z,101498.97
2022-08-21T00:42:53.194Z,101498.38
2022-08-21T00:45:22.769Z,101492.56
2022-08-21T00:47:50.892Z,101495.50
2022-08-21T00:50:21.607Z,101494.06
2022-08-21T00:52:50.742Z,101496.47
2022-08-21T00:55:17.738Z,101496.94
2022-08-21T00:57:50.402Z,101496.69
2022-08-21T01:00:22.508Z,101491.22
2022-08-21T01:02:49.044Z,101494.44
2022-08-21T01:05:15.992Z,101491.94
2022-08-21T01:07:43.203Z,101490.88
2022-08-21T01:10:13.987Z,101499.28
2022-08-21T01:12:52.936Z,101493.00
2022-08-21T01:15:22.680Z,101499.28
2022-08-21T01:17:50.485Z,101494.19
2022-08-21T01:20:17.951Z,101492.06
2022-08-21T01:22:44.529Z,101493.59
2022-08-21T01:25:13.258Z,101499.53
2022-08-21T01:27:40.049Z,101495.88
2022-08-21T01:30:16.976Z,101497.28
2022-08-21T01:32:44.233Z,101498.59
2022-08-21T01:35:13.995Z,101496.47
2022-08-21T01:37:40.872Z,101494.31
2022-08-21T01:40:09.978Z,101498.13
2022-08-21T01:42:38.124Z,101494.31
2022-08-21T01:45:06.870Z,101494.81
2022-08-21T01:47:33.908Z,101498.59
2022-08-21T01:50:01.020Z,101494.31
2022-08-21T01:52:27.886Z,101488.84
2022-08-21T01:54:55.695Z,101488.38
2022-08-21T01:57:22.870Z,101484.22
2022-08-21T01:59:53.133Z,101489.22
2022-08-21T02:02:19.941Z,101485.78
2022-08-21T02:04:46.507Z,101486.34
2022-08-21T02:07:13.305Z,101482.78
2022-08-21T02:09:40.140Z,101490.75
2022-08-21T02:12:07.092Z,101481.94
2022-08-21T02:14:33.668Z,101490.63
2022-08-21T02:17:08.858Z,101482.06
2022-08-21T02:19:37.856Z,101480.75
2022-08-21T02:22:09.735Z,101483.25
2022-08-21T02:24:53.715Z,101484.91
2022-08-21T02:27:26.846Z,101484.78
2022-08-21T02:29:58.323Z,101478.50
2022-08-21T02:32:25.356Z,101484.44
2022-08-21T02:34:52.008Z,101478.75
2022-08-21T02:37:18.565Z,101478.38
2022-08-21T02:39:45.190Z,101470.63
2022-08-21T02:42:11.780Z,101475.28
2022-08-21T02:44:38.314Z,101475.28
2022-08-21T02:47:05.249Z,101477.41
2022-08-21T02:49:31.767Z,101479.06
2022-08-21T02:51:58.362Z,101473.59
2022-08-21T02:54:25.101Z,101474.31
2022-08-21T02:56:51.591Z,101466.44
2022-08-21T02:59:18.189Z,101459.53
2022-08-21T03:01:45.366Z,101473.22
2022-08-21T03:04:11.968Z,101468.84
2022-08-21T03:06:38.479Z,101459.22
2022-08-21T03:09:05.154Z,101466.81
2022-08-21T03:11:31.685Z,101468.94
2022-08-21T03:13:58.233Z,101471.34
2022-08-21T03:16:24.755Z,101472.84
2022-08-21T03:18:51.298Z,101464.88
2022-08-21T03:21:19.893Z,101458.81
2022-08-21T03:23:46.775Z,101459.53
2022-08-21T03:26:13.489Z,101460.81
2022-08-21T03:28:40.774Z,101459.16
2022-08-21T03:31:07.376Z,101459.38
2022-08-21T03:33:33.974Z,101455.09
2022-08-21T03:36:07.067Z,101456.69
2022-08-21T03:38:35.222Z,101452.44
2022-08-21T03:41:02.541Z,101455.72
2022-08-21T03:43:31.093Z,101445.53
2022-08-21T03:46:00.939Z,101445.28
2022-08-21T03:48:27.561Z,101444.66
2022-08-21T03:50:54.555Z,101451.09
2022-08-21T03:53:21.808Z,101443.34
2022-08-21T03:55:50.405Z,101452.84
2022-08-21T03:58:19.457Z,101454.16
2022-08-21T04:00:48.392Z,101460.91
2022-08-21T04:03:15.167Z,101464.94
2022-08-21T04:05:42.075Z,101467.44
2022-08-21T04:08:08.778Z,101471.75
2022-08-21T04:10:37.711Z,101465.25
2022-08-21T04:13:05.497Z,101465.97
2022-08-21T04:15:32.020Z,101467.84
2022-08-21T04:17:58.841Z,101464.56
2022-08-21T04:20:26.393Z,101463.44
2022-08-21T04:22:53.432Z,101461.31
2022-08-21T04:25:22.729Z,101462.38
2022-08-21T04:27:49.268Z,101469.03
2022-08-21T04:30:17.027Z,101468.94
2022-08-21T04:32:49.991Z,101474.31
2022-08-21T04:35:19.343Z,101469.66
2022-08-21T04:37:45.877Z,101477.38
2022-08-21T04:40:14.402Z,101472.16
2022-08-21T04:42:50.651Z,101471.22
2022-08-21T04:45:29.947Z,101476.59
2022-08-21T04:47:59.257Z,101471.00
2022-08-21T04:50:40.468Z,101471.97
2022-08-21T04:53:11.317Z,101480.19
2022-08-21T04:55:38.909Z,101480.41
2022-08-21T04:58:10.299Z,101479.22
2022-08-21T05:00:37.991Z,101479.44
2022-08-21T05:03:07.664Z,101483.00
2022-08-21T05:05:35.448Z,101481.47
2022-08-21T05:08:04.118Z,101487.41
2022-08-21T05:10:32.643Z,101481.78
2022-08-21T05:12:59.944Z,101482.50
2022-08-21T05:15:26.700Z,101477.00
2022-08-21T05:18:00.566Z,101473.53
2022-08-21T05:20:28.348Z,101478.66
2022-08-21T05:22:55.050Z,101480.88
2022-08-21T05:25:23.842Z,101476.94
2022-08-21T05:27:52.252Z,101479.03
2022-08-21T05:30:20.228Z,101482.59
2022-08-21T05:32:47.331Z,101485.44
2022-08-21T05:35:14.712Z,101494.13
2022-08-21T05:37:41.383Z,101492.53
2022-08-21T05:40:21.350Z,101497.63
2022-08-21T05:42:55.362Z,101487.25
2022-08-21T05:45:42.159Z,101488.34
2022-08-21T05:48:20.902Z,101495.84
2022-08-21T05:50:49.175Z,101491.34
2022-08-21T05:53:17.296Z,101489.28
2022-08-21T05:55:46.533Z,101487.22
2022-08-21T05:58:18.611Z,101490.34
2022-08-21T06:00:48.491Z,101489.94
2022-08-21T06:03:22.292Z,101495.09
2022-08-21T06:05:49.407Z,101482.09
2022-08-21T06:08:17.979Z,101491.06
2022-08-21T06:10:46.241Z,101485.69
2022-08-21T06:13:13.656Z,101489.91
2022-08-21T06:15:40.776Z,101487.13
2022-08-21T06:18:07.914Z,101492.50
2022-08-21T06:20:35.303Z,101487.59
2022-08-21T06:23:02.427Z,101490.63
2022-08-21T06:25:30.081Z,101487.66
2022-08-21T06:28:07.662Z,101486.09
2022-08-21T06:30:37.057Z,101480.25
2022-08-21T06:33:08.207Z,101484.09
2022-08-21T06:35:35.966Z,101475.84
2022-08-21T06:38:03.091Z,101481.28
2022-08-21T06:40:34.230Z,101481.81
2022-08-21T06:43:15.447Z,101478.47
2022-08-21T06:45:42.310Z,101463.09
2022-08-21T06:48:08.909Z,101474.22
2022-08-21T06:50:35.920Z,101470.50
2022-08-21T06:53:07.661Z,101471.78
2022-08-21T06:55:34.854Z,101464.50
2022-08-21T06:58:01.857Z,101464.94
2022-08-21T07:00:28.525Z,101464.81
2022-08-21T07:02:55.516Z,101466.03
2022-08-21T07:05:23.102Z,101468.88
2022-08-21T07:07:49.665Z,101467.06
2022-08-21T07:10:22.378Z,101460.53
2022-08-21T07:12:49.965Z,101462.50
2022-08-21T07:15:18.296Z,101465.59
2022-08-21T07:17:45.015Z,101466.44
2022-08-21T07:20:13.364Z,101464.56
2022-08-21T07:22:42.335Z,101462.69
2022-08-21T07:25:09.401Z,101459.09
2022-08-21T07:27:36.137Z,101459.41
2022-08-21T07:30:03.775Z,101462.78
2022-08-21T07:32:30.491Z,101465.25
2022-08-21T07:34:57.559Z,101460.31
2022-08-21T07:37:24.115Z,101460.31
2022-08-21T07:39:52.141Z,101454.78
2022-08-21T07:42:19.035Z,101457.53
2022-08-21T07:44:45.631Z,101450.63
2022-08-21T07:47:12.195Z,101454.47
2022-08-21T07:49:38.862Z,101458.59
2022-08-21T07:52:05.459Z,101461.06
2022-08-21T07:54:33.864Z,101459.66
2022-08-21T07:57:02.052Z,101463.78
2022-08-21T07:59:28.867Z,101459.94
2022-08-21T08:01:55.807Z,101460.22
2022-08-21T08:04:26.337Z,101460.44
2022-08-21T08:06:53.677Z,101463.16
2022-08-21T08:09:20.980Z,101462.88
2022-08-21T08:11:47.552Z,101455.31
2022-08-21T08:14:14.099Z,101459.47
2022-08-21T08:16:40.691Z,101463.03
2022-08-21T08:19:07.295Z,101459.91
2022-08-21T08:21:34.679Z,101457.41
2022-08-21T08:24:01.544Z,101455.06
2022-08-21T08:26:46.223Z,101458.03
2022-08-21T08:29:20.568Z,101455.78
2022-08-21T08:31:47.068Z,101455.47
2022-08-21T08:34:25.077Z,101454.06
2022-08-21T08:36:52.789Z,101456.72
2022-08-21T08:39:26.433Z,101451.94
2022-08-21T08:42:02.997Z,101454.16
2022-08-21T08:44:51.411Z,101448.88
2022-08-21T08:47:19.708Z,101439.25
2022-08-21T08:50:01.484Z,101441.38
2022-08-21T08:52:35.274Z,101442.88
2022-08-21T08:55:05.605Z,101445.59
2022-08-21T08:57:33.456Z,101443.91
2022-08-21T09:00:04.942Z,101445.72
2022-08-21T09:02:34.545Z,101441.00
2022-08-21T09:05:02.146Z,101437.81
2022-08-21T09:07:35.420Z,101436.09
2022-08-21T09:10:13.363Z,101427.69
2022-08-21T09:13:08.118Z,101428.00
2022-08-21T09:15:48.051Z,101426.22
2022-08-21T09:18:36.365Z,101436.66
2022-08-21T09:21:42.055Z,101435.38
2022-08-21T09:24:19.668Z,101435.88
2022-08-21T09:27:07.154Z,101432.78
2022-08-21T09:29:38.301Z,101437.72
2022-08-21T09:32:37.757Z,101432.31
2022-08-21T09:35:17.769Z,101437.88
2022-08-21T09:37:50.208Z,101425.97
2022-08-21T09:40:28.820Z,101420.72
2022-08-21T09:43:20.276Z,101418.94
2022-08-21T09:45:49.030Z,101420.66
2022-08-21T09:48:26.173Z,101425.41
2022-08-21T09:50:54.784Z,101426.44
2022-08-21T09:53:25.438Z,101427.25
2022-08-21T09:56:17.251Z,101431.25
2022-08-21T09:58:49.813Z,101412.13
2022-08-21T10:01:23.267Z,101419.16
2022-08-21T10:04:02.441Z,101422.97
2022-08-21T10:06:29.584Z,101421.63
2022-08-21T10:09:05.194Z,101424.31
2022-08-21T10:11:33.000Z,101415.25
2022-08-21T10:14:30.473Z,101425.13
2022-08-21T10:17:22.491Z,101424.94
2022-08-21T10:20:01.216Z,101417.28
2022-08-21T10:23:03.441Z,101418.09
2022-08-21T10:25:38.966Z,101421.50
2022-08-21T10:28:23.109Z,101413.44
2022-08-21T10:30:52.092Z,101414.69
2022-08-21T10:33:21.478Z,101413.41
2022-08-21T10:36:21.372Z,101406.16
2022-08-21T10:39:23.299Z,101417.22
2022-08-21T10:42:00.003Z,101418.13
2022-08-21T10:44:48.261Z,101413.72
2022-08-21T10:47:34.971Z,101419.63
2022-08-21T10:50:13.685Z,101422.06
2022-08-21T10:52:57.569Z,101429.28
2022-08-21T10:55:31.423Z,101423.38
2022-08-21T10:58:11.521Z,101415.94
2022-08-21T11:00:43.850Z,101425.13
2022-08-21T11:03:22.597Z,101419.47
2022-08-21T11:05:54.331Z,101423.78
2022-08-21T11:08:30.314Z,101422.34
2022-08-21T11:11:06.592Z,101423.06
2022-08-21T11:13:52.931Z,101430.09
2022-08-21T11:16:42.747Z,101419.94
2022-08-21T11:19:20.340Z,101421.81
2022-08-21T11:21:47.615Z,101413.06
2022-08-21T11:24:22.970Z,101417.69
2022-08-21T11:27:27.727Z,101424.53
2022-08-21T11:30:00.242Z,101426.78
2022-08-21T11:32:51.462Z,101426.84
2022-08-21T11:35:44.686Z,101429.88
2022-08-21T11:38:35.934Z,101432.69
2022-08-21T11:41:30.538Z,101425.97
2022-08-21T11:44:06.099Z,101419.75
2022-08-21T11:46:48.445Z,101431.63
2022-08-21T11:49:50.055Z,101427.19
2022-08-21T11:52:23.563Z,101432.56
2022-08-21T11:54:55.238Z,101422.81
2022-08-21T11:57:28.713Z,101429.03
2022-08-21T12:00:14.577Z,101420.69
2022-08-21T12:02:48.803Z,101424.59
2022-08-21T12:05:41.921Z,101423.88
2022-08-21T12:08:30.676Z,101425.91
2022-08-21T12:11:09.588Z,101433.41
2022-08-21T12:13:42.461Z,101424.78
2022-08-21T12:16:29.208Z,101424.97
2022-08-21T12:19:29.214Z,101429.94
2022-08-21T12:22:06.363Z,101426.38
2022-08-21T12:24:48.942Z,101422.69
2022-08-21T12:27:21.109Z,101427.47
2022-08-21T12:29:55.151Z,101417.38
2022-08-21T12:32:29.481Z,101428.03
2022-08-21T12:35:03.638Z,101426.72
2022-08-21T12:37:42.908Z,101423.75
2022-08-21T12:40:23.579Z,101422.25
2022-08-21T12:42:59.186Z,101424.81
2022-08-21T12:45:38.033Z,101431.69
2022-08-21T12:48:15.280Z,101416.16
2022-08-21T12:50:48.989Z,101418.28
2022-08-21T12:53:27.793Z,101422.47
2022-08-21T12:56:00.692Z,101420.41
2022-08-21T12:58:27.302Z,101411.38
2022-08-21T13:01:02.787Z,101420.66
2022-08-21T13:03:30.108Z,101412.31
2022-08-21T13:05:57.564Z,101417.44
2022-08-21T13:08:27.633Z,101415.97
2022-08-21T13:11:13.597Z,101418.53
2022-08-21T13:13:46.941Z,101420.06
2022-08-21T13:16:25.276Z,101414.72
2022-08-21T13:19:06.441Z,101414.22
2022-08-21T13:21:36.289Z,101405.66
2022-08-21T13:24:31.992Z,101411.72
2022-08-21T13:26:58.464Z,101408.63
2022-08-21T13:29:31.504Z,101412.41
2022-08-21T13:32:02.837Z,101415.69
2022-08-21T13:34:36.089Z,101417.34
2022-08-21T13:37:08.548Z,101420.25
2022-08-21T13:39:35.243Z,101406.69
2022-08-21T13:42:06.104Z,101405.22
2022-08-21T13:44:32.768Z,101396.34
2022-08-21T13:47:03.424Z,101404.88
2022-08-21T13:49:40.229Z,101407.59
2022-08-21T13:52:18.828Z,101409.66
2022-08-21T13:54:53.057Z,101399.03
2022-08-21T13:57:25.770Z,101400.34
2022-08-21T13:59:52.698Z,101404.06
2022-08-21T14:02:23.812Z,101396.91
2022-08-21T14:05:01.220Z,101401.41
2022-08-21T14:07:34.405Z,101398.13
2022-08-21T14:10:29.053Z,101393.91
2022-08-21T14:13:05.002Z,101394.25
2022-08-21T14:15:34.846Z,101397.41
2022-08-21T14:18:20.662Z,101393.84
2022-08-21T14:20:47.311Z,101396.34
2022-08-21T14:23:26.259Z,101399.44
2022-08-21T14:25:53.840Z,101394.78
2022-08-21T14:28:52.900Z,101400.44
2022-08-21T14:31:22.201Z,101400.31
2022-08-21T14:33:49.048Z,101399.47
2022-08-21T14:36:17.989Z,101396.25
2022-08-21T14:38:45.649Z,101397.03
2022-08-21T14:41:19.548Z,101403.16
2022-08-21T14:43:57.749Z,101403.34
2022-08-21T14:46:55.370Z,101391.91
2022-08-21T14:49:27.734Z,101395.47
2022-08-21T14:51:58.357Z,101400.03
2022-08-21T14:54:28.130Z,101404.94
2022-08-21T14:57:01.680Z,101398.03
2022-08-21T14:59:28.581Z,101394.25
2022-08-21T15:01:55.173Z,101397.19
2022-08-21T15:04:21.724Z,101404.41
2022-08-21T15:06:48.321Z,101403.47
2022-08-21T15:09:14.879Z,101399.56
2022-08-21T15:11:43.277Z,101401.34
2022-08-21T15:14:15.262Z,101408.66
2022-08-21T15:16:42.907Z,101406.91
2022-08-21T15:19:09.514Z,101394.94
2022-08-21T15:21:36.033Z,101405.59
2022-08-21T15:24:02.768Z,101401.56
2022-08-21T15:26:29.463Z,101396.81
2022-08-21T15:28:55.978Z,101394.94
2022-08-21T15:31:22.714Z,101398.66
2022-08-21T15:33:51.003Z,101394.59
2022-08-21T15:36:17.655Z,101392.34
2022-08-21T15:38:45.517Z,101398.00
2022-08-21T15:41:13.480Z,101393.88
2022-08-21T15:43:50.132Z,101395.63
2022-08-21T15:46:19.404Z,101403.97
2022-08-21T15:48:47.227Z,101391.91
2022-08-21T15:51:15.879Z,101392.31
2022-08-21T15:53:43.040Z,101393.06
2022-08-21T15:56:23.788Z,101395.25
2022-08-21T15:58:58.749Z,101398.97
2022-08-21T16:01:25.406Z,101402.47
2022-08-21T16:03:54.905Z,101402.44
2022-08-21T16:06:37.619Z,101390.09
2022-08-21T16:09:08.863Z,101398.63
2022-08-21T16:11:35.504Z,101407.31
2022-08-21T16:14:02.132Z,101404.53
2022-08-21T16:16:31.691Z,101399.34
2022-08-21T16:18:58.482Z,101394.41
2022-08-21T16:22:17.706Z,101400.19
2022-08-21T16:24:44.262Z,101404.94
2022-08-21T16:27:11.597Z,101399.16
2022-08-21T16:29:40.004Z,101403.91
2022-08-21T16:32:09.049Z,101401.25
2022-08-21T16:34:36.748Z,101395.47
2022-08-21T16:37:03.412Z,101402.31
2022-08-21T16:39:30.208Z,101400.72
2022-08-21T16:41:56.819Z,101399.03
2022-08-21T16:44:23.545Z,101402.50
2022-08-21T16:46:50.334Z,101405.97
2022-08-21T16:49:17.172Z,101400.66
2022-08-21T16:51:43.916Z,101405.63
2022-08-21T16:54:11.581Z,101397.94
2022-08-21T16:56:40.454Z,101400.13
2022-08-21T16:59:08.124Z,101405.91
2022-08-21T17:01:37.296Z,101400.22
2022-08-21T17:04:05.067Z,101399.59
2022-08-21T17:06:32.387Z,101395.09
2022-08-21T17:08:59.655Z,101399.13
2022-08-21T17:11:38.489Z,101402.59
2022-08-21T17:14:12.574Z,101405.00
2022-08-21T17:16:41.751Z,101401.69
2022-08-21T17:19:08.558Z,101403.00
2022-08-21T17:21:35.576Z,101411.72
2022-08-21T17:24:02.204Z,101413.03
2022-08-21T17:26:28.759Z,101411.53
2022-08-21T17:28:55.415Z,101422.16
2022-08-21T17:31:22.328Z,101431.97
2022-08-21T17:33:53.191Z,101424.50
2022-08-21T17:36:23.086Z,101423.63
2022-08-21T17:38:50.255Z,101420.91
2022-08-21T17:41:17.803Z,101430.16
2022-08-21T17:43:44.910Z,101431.91
2022-08-21T17:46:18.157Z,101435.47
2022-08-21T17:48:47.446Z,101433.56
2022-08-21T17:51:14.586Z,101430.50
2022-08-21T17:53:41.238Z,101442.06
2022-08-21T17:56:08.596Z,101446.09
2022-08-21T17:58:35.334Z,101440.25
2022-08-21T18:01:05.985Z,101444.16
2022-08-21T18:03:37.289Z,101439.19
2022-08-21T18:06:05.922Z,101441.44
2022-08-21T18:08:32.952Z,101441.31
2022-08-21T18:11:01.056Z,101443.28
2022-08-21T18:13:32.538Z,101452.31
2022-08-21T18:16:00.319Z,101456.78
2022-08-21T18:18:32.862Z,101457.19
2022-08-21T18:20:59.492Z,101447.84
2022-08-21T18:23:44.080Z,101457.13
2022-08-21T18:26:15.048Z,101456.06
2022-08-21T18:28:41.944Z,101460.94
2022-08-21T18:31:10.878Z,101462.63
2022-08-21T18:33:38.569Z,101462.31
2022-08-21T18:36:05.738Z,101458.47
2022-08-21T18:38:33.050Z,101468.66
2022-08-21T18:40:59.830Z,101469.91
2022-08-21T18:43:26.968Z,101465.00
2022-08-21T18:45:54.051Z,101469.97
2022-08-21T18:48:20.809Z,101468.78
2022-08-21T18:50:48.401Z,101476.53
2022-08-21T18:53:27.325Z,101477.72
2022-08-21T18:56:06.663Z,101482.69
2022-08-21T18:58:35.320Z,101474.34
2022-08-21T19:01:02.126Z,101481.06
2022-08-21T19:03:29.464Z,101483.00
2022-08-21T19:05:56.545Z,101482.72
2022-08-21T19:08:27.664Z,101488.31
2022-08-21T19:10:58.715Z,101489.44
2022-08-21T19:13:28.773Z,101486.09
2022-08-21T19:15:57.178Z,101485.94
2022-08-21T19:18:28.257Z,101487.56
2022-08-21T19:20:57.381Z,101492.78
2022-08-21T19:23:28.933Z,101485.06
2022-08-21T19:28:51.420Z,101494.22
2022-08-21T19:34:16.908Z,101487.88
2022-08-21T19:36:44.431Z,101489.28
2022-08-21T19:39:12.742Z,101497.28
2022-08-21T19:41:42.758Z,101486.50
2022-08-21T19:44:16.313Z,101489.56
2022-08-21T19:46:44.903Z,101488.44
2022-08-21T19:49:15.329Z,101487.63
2022-08-21T19:51:42.714Z,101486.81
2022-08-21T19:54:23.345Z,101490.13
2022-08-21T19:56:50.606Z,101494.00
2022-08-21T19:59:24.879Z,101491.78
2022-08-21T20:01:51.954Z,101492.91
2022-08-21T20:04:19.471Z,101496.75
2022-08-21T20:07:08.180Z,101499.53
2022-08-21T20:09:37.266Z,101507.50
2022-08-21T20:12:10.244Z,101510.28
2022-08-21T20:14:42.677Z,101515.53
2022-08-21T20:17:11.878Z,101518.00
2022-08-21T20:19:41.084Z,101521.53
2022-08-21T20:22:08.415Z,101520.41
2022-08-21T20:24:35.942Z,101515.94
2022-08-21T20:27:06.040Z,101517.03
2022-08-21T20:32:22.269Z,101525.31
2022-08-21T20:34:51.871Z,101523.69
2022-08-21T20:37:35.960Z,101530.31
2022-08-21T20:40:10.366Z,101530.59
2022-08-21T20:42:39.075Z,101527.22
2022-08-21T20:45:08.131Z,101526.97
2022-08-21T20:47:36.440Z,101524.22
2022-08-21T20:50:12.994Z,101520.66
2022-08-21T20:52:41.341Z,101525.59
2022-08-21T20:55:14.194Z,101529.13
2022-08-21T20:58:23.002Z,101530.25
2022-08-21T21:00:58.877Z,101515.28
2022-08-21T21:03:51.191Z,101530.66
2022-08-21T21:06:26.126Z,101528.31
2022-08-21T21:08:58.209Z,101534.13
2022-08-21T21:11:32.030Z,101535.56
2022-08-21T21:14:27.085Z,101530.59
2022-08-21T21:17:00.208Z,101525.63
2022-08-21T21:19:48.851Z,101520.31
2022-08-21T21:22:55.106Z,101535.19
2022-08-21T21:25:24.898Z,101526.13
2022-08-21T21:28:04.408Z,101528.91
2022-08-21T21:30:36.505Z,101528.00
2022-08-21T21:33:04.567Z,101528.31
2022-08-21T21:35:38.843Z,101525.81
2022-08-21T21:38:20.659Z,101527.56
2022-08-21T21:41:10.857Z,101535.03
2022-08-21T21:44:08.521Z,101530.66
2022-08-21T21:46:52.151Z,101530.38
2022-08-21T21:49:40.749Z,101544.25
2022-08-21T21:52:28.749Z,101542.59
2022-08-21T21:55:39.767Z,101542.31
2022-08-21T21:58:18.240Z,101557.22
2022-08-21T22:00:52.519Z,101551.97
2022-08-21T22:03:22.923Z,101554.22
2022-08-21T22:06:00.395Z,101556.97
2022-08-21T22:08:50.590Z,101551.97
2022-08-21T22:11:45.094Z,101558.63
2022-08-21T22:14:22.797Z,101554.75
2022-08-21T22:16:51.264Z,101560.28
2022-08-21T22:19:29.444Z,101550.06
2022-08-21T22:22:06.032Z,101556.97
2022-08-21T22:24:40.407Z,101564.38
2022-08-21T22:27:12.692Z,101557.50
2022-08-21T22:30:00.054Z,101556.97
2022-08-21T22:32:32.689Z,101545.94
2022-08-21T22:35:25.961Z,101539.28
2022-08-21T22:37:58.693Z,101546.75
2022-08-21T22:40:29.466Z,101547.56
2022-08-21T22:43:02.545Z,101552.00
2022-08-21T22:45:30.976Z,101551.47
2022-08-21T22:48:05.890Z,101551.47
2022-08-21T22:50:41.351Z,101552.84
2022-08-21T22:53:09.353Z,101551.47
2022-08-21T22:55:44.057Z,101555.03
2022-08-21T22:58:26.845Z,101554.47
2022-08-21T23:01:22.317Z,101560.25
2022-08-21T23:03:53.836Z,101558.31
2022-08-21T23:07:06.040Z,101562.97
2022-08-21T23:09:47.186Z,101559.66
2022-08-21T23:15:20.787Z,101561.28
2022-08-21T23:18:01.003Z,101560.19
2022-08-21T23:20:40.211Z,101555.75
2022-08-21T23:23:24.226Z,101556.34
2022-08-21T23:26:17.386Z,101557.97
2022-08-21T23:29:03.049Z,101560.16
2022-08-21T23:32:13.419Z,101554.66
2022-08-21T23:35:15.003Z,101557.69
2022-08-21T23:38:09.428Z,101559.63
2022-08-21T23:40:58.660Z,101555.72
2022-08-21T23:43:43.742Z,101562.09
2022-08-21T23:46:32.386Z,101565.13
2022-08-21T23:49:17.734Z,101569.00
2022-08-21T23:52:22.199Z,101561.22
2022-08-21T23:54:52.625Z,101562.03
2022-08-21T23:57:41.072Z,101562.03
